Time;durP1;ratioP1;P1;durP2;ratioP2;P2;SDS_P1;SDS_P2;PMS_P1;PMS_P2;Temp;Humidity;BMP_temperature;BMP_pressure;BME280_temperature;BME280_humidity;BME280_pressure;Samples;Min_cycle;Max_cycle;Signal;HPM_P1;HPM_P2
2023/08/14 00:02:49;;;;;;;4.80;4.20;;;;;;;18.78;75.92;100469.04;131167;1254;108691;-75
2023/08/14 00:05:54;;;;;;;5.00;4.10;;;;;;;18.77;76.04;100462.92;131059;1254;108018;-75
2023/08/14 00:09:00;;;;;;;5.00;4.20;;;;;;;18.75;76.29;100460.09;131157;1251;106634;-75
2023/08/14 00:12:06;;;;;;;5.40;4.70;;;;;;;18.77;76.31;100458.77;131203;1250;106361;-76
2023/08/14 00:15:12;;;;;;;7.00;4.90;;;;;;;18.85;76.53;100461.89;131096;1251;107674;-75
2023/08/14 00:18:18;;;;;;;5.90;4.50;;;;;;;18.89;76.56;100463.87;131090;1258;107488;-75
2023/08/14 00:21:24;;;;;;;6.80;4.60;;;;;;;18.94;76.63;100462.31;131164;1254;107483;-76
2023/08/14 00:24:30;;;;;;;5.00;4.30;;;;;;;18.96;76.73;100459.87;131097;1253;107707;-76
2023/08/14 00:27:36;;;;;;;5.50;5.00;;;;;;;18.99;76.76;100453.87;131109;1253;108595;-76
2023/08/14 00:30:41;;;;;;;6.60;5.00;;;;;;;19.02;76.86;100451.48;131059;1256;108823;-75
2023/08/14 00:33:47;;;;;;;6.10;5.20;;;;;;;19.05;76.95;100453.11;131112;1254;106975;-75
2023/08/14 00:36:53;;;;;;;7.60;5.40;;;;;;;19.07;77.20;100453.52;131091;1251;106350;-75
2023/08/14 00:39:59;;;;;;;6.50;5.30;;;;;;;19.07;77.17;100453.85;131185;1264;108336;-75
2023/08/14 00:43:05;;;;;;;5.50;4.90;;;;;;;18.98;77.37;100457.02;131136;1253;107750;-77
2023/08/14 00:46:13;;;;;;;6.90;5.30;;;;;;;18.95;77.50;100456.11;131041;1251;107318;-76
2023/08/14 00:49:19;;;;;;;7.10;5.40;;;;;;;19.00;77.65;100458.58;130916;1254;209851;-76
2023/08/14 00:52:26;;;;;;;6.20;5.40;;;;;;;19.05;77.61;100461.05;131071;1253;108338;-76
2023/08/14 00:55:31;;;;;;;7.70;5.60;;;;;;;19.07;77.64;100456.48;131101;1251;107482;-76
2023/08/14 00:58:37;;;;;;;5.80;5.20;;;;;;;19.06;77.83;100449.73;130962;1254;106978;-76
2023/08/14 01:01:43;;;;;;;5.70;5.00;;;;;;;19.07;77.92;100453.36;131106;1263;107749;-76
2023/08/14 01:04:49;;;;;;;6.40;5.20;;;;;;;19.07;77.95;100448.20;131113;1251;107391;-76
2023/08/14 01:07:55;;;;;;;6.50;5.00;;;;;;;19.11;78.06;100449.74;130985;1254;107009;-76
2023/08/14 01:11:09;;;;;;;6.80;5.50;;;;;;;19.13;77.96;100451.41;131166;1254;107258;-77
2023/08/14 01:14:21;;;;;;;8.90;5.40;;;;;;;19.07;78.01;100450.45;131027;1257;106951;-76
2023/08/14 01:17:30;;;;;;;6.20;4.90;;;;;;;19.02;78.04;100446.23;131110;1253;107414;-76
2023/08/14 01:20:38;;;;;;;6.50;4.70;;;;;;;18.98;78.15;100446.10;131102;1266;107972;-76
2023/08/14 01:23:57;;;;;;;5.50;4.40;;;;;;;18.89;78.20;100448.52;131094;1253;106883;-76
2023/08/14 01:27:03;;;;;;;7.60;5.00;;;;;;;18.87;78.43;100453.39;131115;1251;107783;-76
2023/08/14 01:30:10;;;;;;;5.50;4.70;;;;;;;18.83;78.32;100450.23;131096;1253;106747;-75
2023/08/14 01:33:16;;;;;;;6.00;5.30;;;;;;;18.82;78.41;100450.66;131112;1254;107131;-75
2023/08/14 01:36:27;;;;;;;6.60;5.10;;;;;;;18.77;78.38;100453.16;131042;1254;108653;-75
2023/08/14 01:39:47;;;;;;;6.00;4.70;;;;;;;18.69;78.69;100459.52;131232;1253;108056;-75
2023/08/14 01:43:00;;;;;;;5.60;5.00;;;;;;;18.67;78.68;100462.29;131060;1251;107908;-75
2023/08/14 01:46:09;;;;;;;5.90;4.60;;;;;;;18.66;78.87;100469.70;131137;1251;107705;-75
2023/08/14 01:49:18;;;;;;;6.20;5.20;;;;;;;18.66;78.68;100468.27;131087;1251;108512;-75
2023/08/14 01:52:24;;;;;;;7.30;5.10;;;;;;;18.60;78.94;100471.20;131052;1251;107356;-76
2023/08/14 01:55:29;;;;;;;6.20;4.80;;;;;;;18.53;79.10;100473.95;131027;1263;107003;-76
2023/08/14 01:58:36;;;;;;;5.10;4.40;;;;;;;18.55;79.28;100468.35;130981;1253;108328;-76
2023/08/14 02:01:41;;;;;;;7.70;4.80;;;;;;;18.55;79.25;100466.48;131053;1256;108425;-75
2023/08/14 02:04:47;;;;;;;5.50;4.60;;;;;;;18.56;79.32;100463.11;130973;1255;106850;-75
2023/08/14 02:07:52;;;;;;;9.40;4.80;;;;;;;18.55;79.31;100460.49;131092;1250;107900;-77
2023/08/14 02:10:59;;;;;;;5.70;4.90;;;;;;;18.54;79.39;100457.98;131221;1253;107214;-75
2023/08/14 02:14:05;;;;;;;5.70;4.70;;;;;;;18.52;79.39;100457.11;131047;1251;108055;-76
2023/08/14 02:17:11;;;;;;;5.00;4.50;;;;;;;18.50;79.41;100454.23;131067;1263;108650;-76
2023/08/14 02:20:18;;;;;;;5.80;4.60;;;;;;;18.47;79.51;100454.89;131040;1253;107310;-77
2023/08/14 02:23:23;;;;;;;6.20;5.00;;;;;;;18.43;79.39;100452.54;131096;1250;107561;-76
2023/08/14 02:26:29;;;;;;;5.70;4.90;;;;;;;18.30;79.53;100452.42;131264;1263;107933;-77
2023/08/14 02:29:34;;;;;;;6.70;5.40;;;;;;;18.23;79.63;100454.42;131094;1252;108682;-76
2023/08/14 02:32:40;;;;;;;4.90;4.40;;;;;;;18.21;79.71;100456.77;131103;1253;106940;-77
2023/08/14 02:35:46;;;;;;;5.00;4.50;;;;;;;18.13;79.67;100458.50;131111;1253;108398;-78
2023/08/14 02:38:55;;;;;;;5.40;4.90;;;;;;;18.02;79.95;100454.95;131149;1256;106737;-75
2023/08/14 02:42:00;;;;;;;5.70;5.10;;;;;;;18.00;80.08;100450.52;131413;1253;108571;-73
2023/08/14 02:45:08;;;;;;;6.20;5.00;;;;;;;18.02;80.26;100445.40;131418;1253;108350;-76
2023/08/14 02:48:13;;;;;;;5.90;5.20;;;;;;;17.97;80.26;100447.59;132071;1249;107220;-75
2023/08/14 02:51:19;;;;;;;5.80;4.80;;;;;;;17.91;80.46;100450.80;131880;1253;105998;-75
2023/08/14 02:54:25;;;;;;;4.80;4.40;;;;;;;17.84;80.48;100453.09;131296;1253;107245;-75
2023/08/14 02:57:30;;;;;;;6.20;5.00;;;;;;;17.81;80.73;100448.20;131359;1251;106833;-75
2023/08/14 03:00:36;;;;;;;6.00;5.40;;;;;;;17.77;80.48;100444.42;131136;1251;108789;-75
2023/08/14 03:03:41;;;;;;;6.70;5.20;;;;;;;17.75;80.66;100444.95;131058;1256;107671;-75
2023/08/14 03:06:47;;;;;;;5.80;5.20;;;;;;;17.72;80.81;100448.13;131073;1253;108703;-75
2023/08/14 03:09:53;;;;;;;5.70;5.00;;;;;;;17.65;80.65;100444.15;131072;1250;107443;-75
2023/08/14 03:12:58;;;;;;;5.60;5.00;;;;;;;17.58;80.81;100442.91;131078;1251;108737;-75
2023/08/14 03:16:04;;;;;;;6.50;5.00;;;;;;;17.55;80.96;100440.35;131185;1251;107425;-76
2023/08/14 03:19:09;;;;;;;5.70;4.90;;;;;;;17.50;80.95;100440.46;131093;1253;107811;-76
2023/08/14 03:22:15;;;;;;;5.90;5.10;;;;;;;17.43;80.94;100445.67;131076;1253;109051;-74
2023/08/14 03:25:22;;;;;;;6.60;5.30;;;;;;;17.32;81.04;100447.40;131163;1251;107602;-75
2023/08/14 03:28:27;;;;;;;6.30;5.60;;;;;;;17.23;81.18;100453.23;131190;1254;107046;-74
2023/08/14 03:31:33;;;;;;;5.20;4.60;;;;;;;17.16;81.27;100459.64;131068;1253;106772;-75
2023/08/14 03:34:40;;;;;;;5.50;4.80;;;;;;;17.11;81.50;100455.39;131136;1251;107498;-74
2023/08/14 03:37:46;;;;;;;6.80;4.80;;;;;;;17.13;81.44;100458.42;131095;1254;107690;-75
2023/08/14 03:40:52;;;;;;;7.30;5.70;;;;;;;17.07;81.48;100459.67;131170;1263;106394;-77
2023/08/14 03:43:57;;;;;;;8.30;5.50;;;;;;;17.03;81.76;100466.27;130891;1254;107076;-75
2023/08/14 03:47:03;;;;;;;6.20;4.90;;;;;;;17.03;81.74;100470.23;130938;1254;107825;-75
2023/08/14 03:50:09;;;;;;;6.30;5.60;;;;;;;17.09;81.80;100471.34;131181;1253;106781;-76
2023/08/14 03:53:15;;;;;;;5.70;5.20;;;;;;;17.13;81.81;100469.86;131140;1253;106867;-75
2023/08/14 03:56:21;;;;;;;6.70;5.90;;;;;;;17.18;81.92;100475.79;131138;1251;107919;-75
2023/08/14 03:59:27;;;;;;;6.90;5.50;;;;;;;17.19;81.97;100476.52;131062;1251;107563;-75
2023/08/14 04:02:32;;;;;;;5.90;5.00;;;;;;;17.21;82.20;100471.93;131046;1253;106581;-76
2023/08/14 04:05:42;;;;;;;7.10;5.90;;;;;;;17.30;82.24;100467.25;131030;1251;108368;-74
2023/08/14 04:08:47;;;;;;;6.70;5.50;;;;;;;17.39;82.35;100461.08;131114;1250;108701;-74
2023/08/14 04:11:53;;;;;;;6.60;5.80;;;;;;;17.34;82.15;100470.90;131161;1253;108747;-74
2023/08/14 04:15:14;;;;;;;6.20;5.40;;;;;;;17.36;82.62;100479.34;131086;1254;106573;-75
2023/08/14 04:18:20;;;;;;;6.20;5.60;;;;;;;17.50;83.11;100468.55;131000;1254;108721;-75
2023/08/14 04:21:26;;;;;;;8.20;6.30;;;;;;;17.68;83.14;100469.17;131229;1250;106867;-77
2023/08/14 04:24:31;;;;;;;6.90;6.20;;;;;;;17.81;83.23;100474.58;131127;1254;106558;-77
2023/08/14 04:27:38;;;;;;;6.90;6.10;;;;;;;17.92;83.34;100475.34;131154;1253;106521;-77
2023/08/14 04:30:44;;;;;;;6.40;5.70;;;;;;;18.07;83.60;100471.63;131033;1253;107396;-77
2023/08/14 04:33:50;;;;;;;6.20;5.20;;;;;;;18.20;83.70;100476.92;131118;1253;108515;-74
2023/08/14 04:36:56;;;;;;;8.20;6.10;;;;;;;18.31;83.61;100474.52;131130;1253;108760;-74
2023/08/14 04:40:02;;;;;;;7.00;6.10;;;;;;;18.42;83.75;100471.89;131148;1254;106775;-74
2023/08/14 04:43:08;;;;;;;7.90;6.70;;;;;;;18.58;83.85;100478.88;131142;1253;107832;-78
2023/08/14 04:46:30;;;;;;;6.80;5.60;;;;;;;18.71;83.86;100479.60;131046;1251;108804;-77
2023/08/14 04:49:37;;;;;;;6.20;5.20;;;;;;;18.77;83.87;100483.52;131153;1251;107669;-74
2023/08/14 04:52:43;;;;;;;7.40;6.00;;;;;;;18.77;83.81;100487.17;131051;1256;107675;-74
2023/08/14 04:55:49;;;;;;;6.30;5.70;;;;;;;18.71;84.00;100494.80;131249;1251;107542;-74
2023/08/14 04:58:56;;;;;;;9.60;6.50;;;;;;;18.74;84.22;100504.08;131168;1250;107437;-74
2023/08/14 05:02:02;;;;;;;6.90;6.20;;;;;;;18.80;84.56;100507.02;130995;1251;107134;-75
2023/08/14 05:05:09;;;;;;;5.80;5.20;;;;;;;18.89;84.58;100499.05;131296;1251;108666;-76
2023/08/14 05:08:14;;;;;;;7.20;5.70;;;;;;;19.04;84.60;100496.83;131028;1252;107642;-76
2023/08/14 05:11:20;;;;;;;6.40;5.70;;;;;;;19.24;84.65;100496.05;131165;1253;107496;-75
2023/08/14 05:14:26;;;;;;;8.70;6.00;;;;;;;19.43;84.71;100495.31;131082;1250;106346;-75
2023/08/14 05:17:31;;;;;;;6.70;6.00;;;;;;;19.57;84.82;100499.20;131196;1254;106715;-75
2023/08/14 05:20:37;;;;;;;6.40;5.50;;;;;;;19.69;84.77;100501.10;131229;1250;108031;-75
2023/08/14 05:23:45;;;;;;;6.70;5.50;;;;;;;19.78;84.75;100504.95;131170;1253;108430;-74
2023/08/14 05:26:50;;;;;;;5.50;4.90;;;;;;;19.91;84.69;100513.39;131077;1253;108032;-76
2023/08/14 05:29:56;;;;;;;7.90;6.10;;;;;;;20.11;84.64;100504.78;131114;1253;107550;-75
2023/08/14 05:33:03;;;;;;;6.80;6.20;;;;;;;20.30;85.27;100508.05;131120;1253;107895;-74
2023/08/14 05:36:09;;;;;;;5.90;5.30;;;;;;;20.54;85.00;100513.22;131157;1253;107711;-75
2023/08/14 05:39:18;;;;;;;5.10;4.30;;;;;;;20.81;84.47;100510.71;131127;1253;107942;-75
2023/08/14 05:42:24;;;;;;;4.90;4.40;;;;;;;21.09;83.37;100513.84;131202;1253;107673;-77
2023/08/14 05:45:29;;;;;;;4.70;4.20;;;;;;;21.33;82.59;100512.88;131152;1253;107968;-75
2023/08/14 05:48:36;;;;;;;4.70;4.30;;;;;;;21.54;82.70;100509.64;131117;1253;107810;-75
2023/08/14 05:51:42;;;;;;;5.40;4.80;;;;;;;21.71;82.25;100508.02;131066;1253;106999;-75
2023/08/14 05:54:47;;;;;;;5.60;5.10;;;;;;;21.80;82.04;100506.55;131166;1253;107779;-75
2023/08/14 05:57:53;;;;;;;5.30;4.60;;;;;;;21.85;81.97;100502.52;131116;1251;107930;-74
2023/08/14 06:01:00;;;;;;;6.50;4.30;;;;;;;21.94;81.86;100507.42;131071;1253;107093;-76
2023/08/14 06:04:08;;;;;;;4.40;4.00;;;;;;;22.05;81.60;100511.00;131151;1251;108454;-75
2023/08/14 06:07:14;;;;;;;6.20;5.10;;;;;;;22.21;81.07;100508.70;131149;1253;108385;-76
2023/08/14 06:10:20;;;;;;;6.70;4.60;;;;;;;22.40;80.91;100509.48;131133;1253;107746;-75
2023/08/14 06:13:25;;;;;;;6.20;5.30;;;;;;;22.58;80.46;100502.70;131067;1254;107664;-75
2023/08/14 06:16:31;;;;;;;5.90;4.80;;;;;;;22.73;80.35;100504.73;131114;1253;107685;-74
2023/08/14 06:19:36;;;;;;;6.40;5.00;;;;;;;22.81;80.23;100502.67;131053;1253;107561;-75
2023/08/14 06:22:43;;;;;;;5.60;5.00;;;;;;;22.85;80.26;100503.00;131016;1253;107870;-75
2023/08/14 06:25:49;;;;;;;6.60;5.30;;;;;;;22.88;79.95;100497.78;131189;1253;107788;-76
2023/08/14 06:28:54;;;;;;;6.30;5.10;;;;;;;22.97;79.92;100499.76;131176;1252;106692;-75
2023/08/14 06:32:00;;;;;;;5.40;4.90;;;;;;;23.11;79.51;100498.21;131104;1250;107768;-76
2023/08/14 06:35:07;;;;;;;5.90;5.30;;;;;;;23.28;79.47;100495.94;131149;1253;107550;-75
2023/08/14 06:38:13;;;;;;;7.10;6.00;;;;;;;23.36;78.99;100491.88;131134;1253;107060;-76
2023/08/14 06:41:18;;;;;;;7.10;6.40;;;;;;;23.40;78.96;100488.27;131096;1254;107647;-76
2023/08/14 06:44:24;;;;;;;7.10;5.70;;;;;;;23.45;79.36;100481.75;131133;1253;108612;-75
2023/08/14 06:47:30;;;;;;;5.60;4.80;;;;;;;23.46;78.93;100487.01;131034;1251;107508;-75
2023/08/14 06:50:35;;;;;;;4.50;4.10;;;;;;;23.42;79.06;100492.17;131077;1253;106794;-76
2023/08/14 06:53:41;;;;;;;5.20;4.50;;;;;;;23.36;78.93;100506.90;131156;1253;107155;-75
2023/08/14 06:56:46;;;;;;;4.70;4.30;;;;;;;23.30;78.27;100520.45;131093;1253;107881;-75
2023/08/14 06:59:52;;;;;;;5.90;4.80;;;;;;;23.29;77.68;100521.47;131109;1250;108427;-75
2023/08/14 07:02:58;;;;;;;6.10;4.90;;;;;;;23.34;77.24;100517.80;131127;1253;106028;-77
2023/08/14 07:06:03;;;;;;;4.80;4.30;;;;;;;23.37;76.69;100511.43;131192;1253;108733;-78
2023/08/14 07:09:09;;;;;;;7.00;5.00;;;;;;;23.37;77.03;100516.51;131254;1254;106661;-77
2023/08/14 07:12:15;;;;;;;4.80;4.40;;;;;;;23.37;76.78;100513.19;131063;1253;106671;-76
2023/08/14 07:15:21;;;;;;;6.60;4.80;;;;;;;23.40;76.40;100512.55;131249;1250;106967;-77
2023/08/14 07:18:27;;;;;;;5.20;4.70;;;;;;;23.49;76.71;100520.52;131268;1253;107505;-75
2023/08/14 07:21:34;;;;;;;5.10;4.60;;;;;;;23.59;76.05;100530.90;131286;1251;106815;-77
2023/08/14 07:24:39;;;;;;;5.40;4.80;;;;;;;23.73;76.15;100542.66;131175;1253;108182;-76
2023/08/14 07:27:45;;;;;;;6.60;5.00;;;;;;;23.86;75.46;100541.67;131200;1251;106177;-76
2023/08/14 07:30:51;;;;;;;6.30;5.20;;;;;;;23.95;75.86;100543.61;131143;1253;108673;-77
2023/08/14 07:33:56;;;;;;;7.40;4.90;;;;;;;23.98;76.13;100539.33;131209;1253;107565;-76
2023/08/14 07:37:02;;;;;;;7.20;4.90;;;;;;;23.91;75.60;100540.27;131227;1253;107119;-76
2023/08/14 07:40:09;;;;;;;6.80;5.90;;;;;;;23.84;75.20;100530.40;131193;1253;108551;-76
2023/08/14 07:43:15;;;;;;;8.00;5.90;;;;;;;23.80;75.45;100529.85;131263;1254;107623;-76
2023/08/14 07:46:21;;;;;;;5.30;4.70;;;;;;;23.78;75.93;100524.54;131310;1253;106984;-76
2023/08/14 07:49:26;;;;;;;5.80;5.20;;;;;;;23.78;75.52;100538.16;131329;1251;107592;-76
2023/08/14 07:52:34;;;;;;;5.80;4.90;;;;;;;23.91;75.86;100532.04;131318;1253;107724;-75
2023/08/14 07:55:40;;;;;;;5.70;5.10;;;;;;;24.06;75.29;100540.91;131162;1253;106783;-77
2023/08/14 07:58:45;;;;;;;4.90;4.50;;;;;;;24.17;74.63;100550.05;131160;1253;107716;-76
2023/08/14 08:01:51;;;;;;;6.40;4.70;;;;;;;24.25;74.69;100556.86;131054;1253;108765;-75
2023/08/14 08:04:57;;;;;;;5.00;4.60;;;;;;;24.38;74.25;100564.27;131195;1253;107040;-75
2023/08/14 08:08:02;;;;;;;5.70;5.20;;;;;;;24.47;74.33;100565.50;131098;1252;108641;-76
2023/08/14 08:11:08;;;;;;;4.80;4.40;;;;;;;24.60;74.26;100558.45;131251;1265;107357;-75
2023/08/14 08:14:15;;;;;;;5.10;4.60;;;;;;;24.71;73.50;100555.27;131127;1254;107561;-76
2023/08/14 08:17:20;;;;;;;5.40;4.90;;;;;;;24.82;73.83;100556.02;131191;1251;106536;-75
2023/08/14 08:20:26;;;;;;;7.10;5.80;;;;;;;24.90;72.96;100556.19;131197;1252;107600;-75
2023/08/14 08:23:32;;;;;;;6.50;5.60;;;;;;;24.98;73.58;100552.37;131140;1253;107958;-77
2023/08/14 08:26:38;;;;;;;5.20;4.70;;;;;;;25.07;73.37;100551.19;131212;1253;108711;-75
2023/08/14 08:29:44;;;;;;;5.50;4.90;;;;;;;25.24;72.91;100550.73;131222;1253;106809;-76
2023/08/14 08:32:49;;;;;;;7.10;5.50;;;;;;;25.37;72.62;100551.86;131223;1253;107251;-75
2023/08/14 08:35:55;;;;;;;5.20;4.70;;;;;;;25.43;71.87;100549.25;131143;1254;107763;-75
2023/08/14 08:39:01;;;;;;;5.30;4.80;;;;;;;25.37;71.89;100547.55;131090;1250;107828;-75
2023/08/14 08:42:11;;;;;;;4.90;4.40;;;;;;;25.34;71.89;100543.13;131077;1264;106606;-75
2023/08/14 08:45:21;;;;;;;5.10;4.70;;;;;;;25.24;71.44;100546.69;131121;1254;108593;-75
2023/08/14 08:48:29;;;;;;;6.10;5.50;;;;;;;25.18;71.29;100545.95;131137;1251;108731;-75
2023/08/14 08:51:37;;;;;;;5.90;5.10;;;;;;;25.14;72.27;100543.15;131113;1253;107064;-75
2023/08/14 08:54:43;;;;;;;6.30;5.20;;;;;;;25.15;72.74;100538.85;131214;1256;108149;-74
2023/08/14 08:57:49;;;;;;;6.20;5.20;;;;;;;25.19;72.75;100535.43;131116;1253;106899;-76
2023/08/14 09:00:56;;;;;;;5.80;4.80;;;;;;;25.19;72.35;100532.37;131105;1253;106976;-73
2023/08/14 09:04:02;;;;;;;5.30;4.80;;;;;;;25.23;72.49;100536.90;131120;1253;106585;-74
2023/08/14 09:07:11;;;;;;;5.30;4.80;;;;;;;25.34;72.85;100528.59;131082;1253;107930;-74
2023/08/14 09:10:17;;;;;;;5.00;4.50;;;;;;;25.40;72.93;100525.20;131049;1253;106902;-74
2023/08/14 09:13:23;;;;;;;5.10;4.60;;;;;;;25.44;72.66;100518.47;131115;1253;107839;-77
2023/08/14 09:16:29;;;;;;;5.20;4.70;;;;;;;25.49;71.93;100514.37;131007;1251;107430;-75
2023/08/14 09:19:34;;;;;;;5.30;4.30;;;;;;;25.51;72.39;100509.61;131069;1253;107796;-76
2023/08/14 09:22:41;;;;;;;4.60;4.10;;;;;;;25.53;72.20;100505.16;131059;1251;107767;-77
2023/08/14 09:25:49;;;;;;;4.50;4.10;;;;;;;25.55;71.93;100501.20;131158;1253;107809;-77
2023/08/14 09:28:56;;;;;;;4.50;4.10;;;;;;;25.63;72.16;100500.48;131187;1254;108570;-76
2023/08/14 09:32:02;;;;;;;5.60;4.10;;;;;;;25.67;71.61;100501.04;131097;1253;108351;-78
2023/08/14 09:35:09;;;;;;;4.60;4.20;;;;;;;25.66;71.95;100505.44;131172;1254;108201;-76
2023/08/14 09:38:16;;;;;;;6.00;4.00;;;;;;;25.75;71.76;100505.23;131021;1254;106707;-77
2023/08/14 09:41:27;;;;;;;4.30;3.90;;;;;;;25.78;71.79;100503.75;131119;1253;107454;-77
2023/08/14 09:44:32;;;;;;;5.20;4.00;;;;;;;25.82;71.64;100504.67;131118;1253;107717;-76
2023/08/14 09:47:38;;;;;;;4.30;3.90;;;;;;;25.81;70.98;100503.52;131099;1253;107961;-76
2023/08/14 09:50:50;;;;;;;5.40;3.50;;;;;;;25.87;71.28;100499.34;131104;1251;106534;-76
2023/08/14 09:53:58;;;;;;;4.50;4.00;;;;;;;25.94;71.20;100497.91;131583;1250;109734;-76
2023/08/14 09:57:05;;;;;;;4.90;3.80;;;;;;;26.00;69.82;100498.05;131357;1253;107678;-76
2023/08/14 10:00:13;;;;;;;3.50;3.20;;;;;;;25.98;70.71;100494.20;131233;1253;107723;-76
2023/08/14 10:03:21;;;;;;;3.90;3.50;;;;;;;26.08;71.00;100488.48;131218;1251;108615;-76
2023/08/14 10:06:27;;;;;;;5.00;3.60;;;;;;;26.15;69.93;100484.27;131103;1253;108481;-76
2023/08/14 10:09:37;;;;;;;4.10;3.50;;;;;;;26.16;71.17;100488.98;131117;1251;108375;-76
2023/08/14 10:12:49;;;;;;;4.90;4.00;;;;;;;26.27;70.10;100484.27;131090;1251;107652;-76
2023/08/14 10:15:59;;;;;;;4.80;3.50;;;;;;;26.30;71.02;100488.64;131084;1253;108144;-76
2023/08/14 10:19:08;;;;;;;3.60;3.20;;;;;;;26.39;70.35;100490.09;131153;1253;106288;-75
2023/08/14 10:22:15;;;;;;;6.60;3.20;;;;;;;26.43;70.47;100485.45;131163;1253;108585;-76
2023/08/14 10:25:22;;;;;;;4.00;3.00;;;;;;;26.55;70.33;100484.17;131290;1253;108049;-76
2023/08/14 10:28:29;;;;;;;3.20;2.90;;;;;;;26.62;69.86;100489.49;131256;1253;107103;-76
2023/08/14 10:31:36;;;;;;;4.00;2.70;;;;;;;26.71;70.10;100489.61;131157;1253;108052;-76
2023/08/14 10:34:43;;;;;;;3.70;2.90;;;;;;;26.83;68.47;100487.45;131249;1253;106672;-76
2023/08/14 10:37:50;;;;;;;3.20;2.90;;;;;;;26.79;69.34;100493.39;131077;1253;108273;-76
2023/08/14 10:41:07;;;;;;;3.80;3.10;;;;;;;26.81;69.15;100486.05;131140;1250;108864;-76
2023/08/14 10:44:14;;;;;;;5.40;3.20;;;;;;;26.86;68.83;100490.94;131155;1253;107669;-77
2023/08/14 10:47:20;;;;;;;3.70;3.30;;;;;;;26.87;68.90;100495.38;131095;1251;106921;-76
2023/08/14 10:50:29;;;;;;;3.80;3.20;;;;;;;26.86;68.41;100488.36;131040;1251;107086;-76
2023/08/14 10:53:35;;;;;;;4.20;3.60;;;;;;;26.87;68.50;100493.25;131116;1251;108310;-76
2023/08/14 10:56:46;;;;;;;5.00;3.40;;;;;;;26.89;69.14;100488.08;131108;1251;106346;-76
2023/08/14 10:59:58;;;;;;;3.90;3.50;;;;;;;26.96;68.22;100486.17;131092;1253;105839;-75
2023/08/14 11:03:08;;;;;;;4.50;3.60;;;;;;;26.95;68.14;100485.06;131056;1253;107908;-78
2023/08/14 11:06:24;;;;;;;3.80;3.20;;;;;;;26.83;68.03;100491.88;131055;1253;107676;-78
2023/08/14 11:09:32;;;;;;;5.20;3.30;;;;;;;26.75;67.91;100491.46;131034;1253;109237;-76
2023/08/14 11:12:38;;;;;;;5.50;3.90;;;;;;;26.68;68.23;100491.10;131163;1253;107487;-76
2023/08/14 11:15:44;;;;;;;4.70;3.60;;;;;;;26.72;68.03;100491.10;131061;1249;106982;-76
2023/08/14 11:18:51;;;;;;;4.80;3.70;;;;;;;26.85;67.57;100481.40;131014;1253;107829;-77
2023/08/14 11:21:57;;;;;;;4.20;3.50;;;;;;;26.83;67.11;100484.45;130992;1251;107442;-76
2023/08/14 11:25:02;;;;;;;4.30;3.60;;;;;;;26.85;67.72;100480.31;131053;1253;106882;-76
2023/08/14 11:28:08;;;;;;;5.50;3.90;;;;;;;26.92;67.21;100476.01;131131;1253;107896;-76
2023/08/14 11:31:15;;;;;;;5.20;3.90;;;;;;;27.06;67.84;100472.36;131042;1253;107581;-76
2023/08/14 11:34:22;;;;;;;5.80;4.20;;;;;;;27.17;66.58;100476.61;131124;1253;107555;-76
2023/08/14 11:37:28;;;;;;;4.60;3.70;;;;;;;27.05;66.83;100477.02;131095;1253;108255;-76
2023/08/14 11:40:34;;;;;;;4.20;3.80;;;;;;;26.98;66.92;100478.54;131096;1253;106338;-76
2023/08/14 11:43:39;;;;;;;4.20;3.80;;;;;;;27.01;66.81;100480.16;131045;1253;107046;-75
2023/08/14 11:46:45;;;;;;;5.10;4.60;;;;;;;27.03;67.06;100482.05;131084;1253;107536;-76
2023/08/14 11:49:51;;;;;;;4.40;4.00;;;;;;;27.19;67.27;100479.36;131066;1251;105887;-76
2023/08/14 11:52:58;;;;;;;4.30;3.90;;;;;;;27.27;66.68;100476.52;131210;1253;107608;-77
2023/08/14 11:56:04;;;;;;;4.10;3.80;;;;;;;27.22;66.23;100480.83;131157;1251;107620;-76
2023/08/14 11:59:10;;;;;;;5.10;4.40;;;;;;;27.13;66.53;100467.52;131200;1251;108290;-76
2023/08/14 12:02:18;;;;;;;4.30;3.90;;;;;;;27.07;67.02;100468.11;131130;1253;107656;-76
2023/08/14 12:05:23;;;;;;;4.30;3.90;;;;;;;27.26;66.92;100460.66;131173;1253;107169;-76
2023/08/14 12:08:31;;;;;;;4.00;3.60;;;;;;;27.44;66.52;100460.52;131159;1253;106874;-76
2023/08/14 12:11:39;;;;;;;4.20;3.80;;;;;;;27.42;66.22;100456.05;131231;1253;106615;-77
2023/08/14 12:14:46;;;;;;;3.90;3.60;;;;;;;27.39;66.02;100455.96;131054;1256;108680;-77
2023/08/14 12:17:52;;;;;;;5.00;4.60;;;;;;;27.40;66.52;100458.12;131242;1250;108587;-75
2023/08/14 12:20:58;;;;;;;4.50;4.20;;;;;;;27.52;66.16;100459.42;131249;1251;106643;-76
2023/08/14 12:24:04;;;;;;;4.90;4.50;;;;;;;27.50;65.62;100455.89;131376;1253;107945;-77
2023/08/14 12:27:18;;;;;;;5.60;5.00;;;;;;;27.54;65.81;100454.08;131273;1251;107744;-76
2023/08/14 12:30:23;;;;;;;6.00;5.00;;;;;;;27.61;65.64;100453.24;131171;1253;107028;-75
2023/08/14 12:33:29;;;;;;;5.20;4.80;;;;;;;27.69;65.54;100455.45;131154;1253;107876;-75
2023/08/14 12:36:35;;;;;;;5.70;5.20;;;;;;;27.77;65.73;100457.38;131213;1253;106865;-76
2023/08/14 12:39:42;;;;;;;6.80;5.70;;;;;;;27.92;65.36;100453.02;131202;1254;107984;-76
2023/08/14 12:42:48;;;;;;;6.50;4.90;;;;;;;27.93;65.12;100452.10;131144;1254;106691;-75
2023/08/14 12:45:54;;;;;;;6.90;6.20;;;;;;;27.96;65.16;100459.35;131143;1251;106793;-75
2023/08/14 12:48:59;;;;;;;6.60;5.90;;;;;;;27.93;65.00;100453.68;131017;1253;165925;-76
2023/08/14 12:52:06;;;;;;;6.10;5.60;;;;;;;27.93;65.36;100450.51;131121;1253;108451;-75
2023/08/14 12:55:14;;;;;;;6.40;5.80;;;;;;;28.07;64.83;100448.12;131219;1253;107722;-76
2023/08/14 12:58:19;;;;;;;5.70;5.20;;;;;;;28.13;64.68;100450.52;131164;1255;107654;-76
2023/08/14 13:01:25;;;;;;;5.70;5.10;;;;;;;28.09;64.69;100447.54;131269;1253;108611;-76
2023/08/14 13:04:31;;;;;;;7.00;6.30;;;;;;;28.06;65.02;100442.52;131180;1250;107539;-76
2023/08/14 13:07:37;;;;;;;6.10;5.50;;;;;;;28.15;64.27;100440.00;131228;1253;108189;-76
2023/08/14 13:10:42;;;;;;;6.40;5.00;;;;;;;28.16;64.69;100441.42;131212;1263;106568;-76
2023/08/14 13:13:49;;;;;;;5.60;5.00;;;;;;;28.33;63.91;100439.04;131301;1251;107580;-76
2023/08/14 13:16:55;;;;;;;5.40;5.00;;;;;;;28.43;63.40;100434.92;131265;1253;107789;-76
2023/08/14 13:20:00;;;;;;;5.90;5.20;;;;;;;28.44;63.51;100438.38;131162;1251;106967;-75
2023/08/14 13:23:06;;;;;;;6.00;5.30;;;;;;;28.38;62.78;100440.23;131273;1253;107854;-77
2023/08/14 13:26:12;;;;;;;4.90;4.50;;;;;;;28.31;63.24;100438.61;131294;1256;108525;-77
2023/08/14 13:29:18;;;;;;;5.60;5.10;;;;;;;28.27;63.35;100436.49;131341;1253;107590;-77
2023/08/14 13:32:23;;;;;;;5.70;5.20;;;;;;;28.18;63.39;100443.36;131193;1251;106640;-77
2023/08/14 13:35:29;;;;;;;5.10;4.70;;;;;;;28.11;63.03;100431.30;131151;1251;106766;-77
2023/08/14 13:38:35;;;;;;;9.60;4.80;;;;;;;28.06;63.37;100429.96;131184;1253;107637;-76
2023/08/14 13:41:40;;;;;;;4.90;4.50;;;;;;;28.23;63.29;100430.59;131277;1253;106975;-76
2023/08/14 13:44:46;;;;;;;5.30;4.80;;;;;;;28.31;62.97;100429.39;131259;1253;105843;-77
2023/08/14 13:47:51;;;;;;;5.40;4.80;;;;;;;28.29;63.10;100424.38;131117;1253;108514;-77
2023/08/14 13:50:58;;;;;;;5.30;4.30;;;;;;;28.36;62.48;100429.57;131119;1253;108465;-76
2023/08/14 13:54:04;;;;;;;5.20;4.70;;;;;;;28.33;62.22;100427.36;131232;1253;108608;-78
2023/08/14 13:57:09;;;;;;;5.50;4.60;;;;;;;28.22;62.78;100420.88;131083;1253;107484;-77
2023/08/14 14:00:16;;;;;;;5.50;5.00;;;;;;;28.21;62.47;100420.98;131068;1263;106424;-77
2023/08/14 14:03:22;;;;;;;5.60;5.10;;;;;;;28.10;62.65;100418.91;131025;1253;106697;-76
2023/08/14 14:06:27;;;;;;;4.90;4.50;;;;;;;28.14;62.85;100412.55;131478;1253;107028;-79
2023/08/14 14:09:33;;;;;;;5.30;4.50;;;;;;;28.30;62.75;100410.22;131311;1253;106908;-79